Tiempo atmosférico en la estación meteorológica de Fonfría, Teruel (1262 m.)



Fecha
DESCASC
Temp. máxima en grados centígrados (hora)
DESCASC
Temp. mínima en grados centígrados (hora)
DESCASC
Temp. media en grados centígrados
DESCASC
Racha de viento máxima en m/sg (hora)
DESCASC
Velocidad máxima media en intervalos de 10 minutos(hora)
DESCASC
Precipitaciones diarias en mm
DESCASC
Precipitaciones de 00:00 a 06:00 en mm
DESCASC
Precipitaciones de 06:00 a 12:00 en mm
DESCASC
Precipitaciones de 12:00 a 18:00 en mm
DESCASC
Precipitaciones de 18:00 a 24:00 en mm
DESCASC
20-05-2018 17.8 (15:00) 6.6 (06:40) 12.2 9.17 (17:20) 5.83 (22:50) 0 0 0 0 0
19-05-2018 15.5 (12:10) 7.8 (05:00) 11.7 8.33 (13:00) 5.56 (13:30) 9.8 0.2 0 9.4 0.2
18-05-2018 17 (19:20) 6.4 (00:00) 11.7 8.33 (12:10) 5 (12:50) 3 0 0 1.6 1.4
17-05-2018 18.5 (11:30) 7.3 (00:00) 12.9 8.61 (09:10) 6.11 (09:10) 0.2 0 0 0.2 0
16-05-2018 17.8 (16:40) 4.3 (00:00) 11 8.33 (17:50) 4.72 (17:50) 0 0 0 0 0
15-05-2018 13.4 (16:20) 2.7 (00:00) 8 13.33 (01:00) 9.17 (00:10) 0 0 0 0 0
14-05-2018 12.6 (17:10) 1 (00:00) 6.8 15.83 (23:40) 10.83 (20:20) 0 0 0 0 0
13-05-2018 10.7 (18:40) -1.6 (-00:0) 4.5 13.06 (00:40) 8.06 (18:50) 0 0 0 0 0
12-05-2018 20.4 (16:20) 2.1 (00:00) 11.2 12.78 (22:40) 9.44 (19:40) 0 0 0 0 0
11-05-2018 21.6 (15:40) 7.3 (00:00) 14.5 9.17 (12:20) 7.5 (04:30) 0 0 0 0 0
10-05-2018 14.9 (16:50) 5.9 (00:00) 10.4 11.94 (06:20) 8.61 (06:30) 0 0 0 0 0
09-05-2018 19.6 (17:30) 7.3 (00:00) 13.5 8.61 (14:00) 5.83 (12:30) 0 0 0 0 0
08-05-2018 18.2 (16:50) 9.4 (00:00) 13.8 11.39 (14:00) 8.33 (14:00) 0 0 0 0 0
07-05-2018 17.4 (17:10) 8.8 (00:00) 13.1 6.94 (17:00) 3.89 (13:40) 3.4 0 1.2 2.2 0
06-05-2018 18.9 (15:50) 6.5 (06:40) 12.7 8.33 (13:50) 4.44 (14:10) 0 0 0 0 0
05-05-2018 16.8 (14:40) 3.6 (00:00) 10.2 9.17 (18:00) 5 (16:30) 0.2 0 0 0 0.2
04-05-2018 13.2 (16:20) 1.7 (00:00) 7.4 13.89 (00:10) 8.89 (00:10) 0 0 0 0 0
03-05-2018 9.6 (12:50) 2 (00:00) 5.8 17.22 (09:20) 11.67 (15:30) 0 0 0 0 0
02-05-2018 13.7 (17:00) 1 (00:00) 7.3 14.44 (14:10) 9.72 (13:50) 0 0 0 0 0
01-05-2018 10.1 (17:10) -0.2 (05:40) 5 12.5 (13:30) 8.61 (10:50) 0 0 0 0 0
30-04-2018 8.7 (12:50) 0.3 (00:00) 4.5 12.22 (02:50) 8.61 (17:50) 0.4 0 0 0.4 0
29-04-2018 9.4 (16:20) 2.6 (00:00) 6 16.39 (18:20) 10.28 (17:50) 0.8 0 0 0.8 0
28-04-2018 19.6 (15:10) 5.9 (00:00) 12.8 11.39 (15:10) 6.11 (16:00) 0 0 0 0 0
27-04-2018 21.2 (15:50) 9.8 (00:00) 15.5 9.72 (15:50) 7.22 (00:20) 1 0 0 1 0
26-04-2018 20.5 (16:00) 4.8 (00:00) 12.7 7.78 (23:20) 6.94 (23:59) 0 0 0 0 0
25-04-2018 19.8 (15:50) 7.8 (00:00) 13.8 8.33 (17:10) 5.56 (17:30) 0 0 0 0 0
24-04-2018 20.7 (15:50) 10.4 (00:00) 15.6 8.89 (17:00) 5 (17:00) 0 0 0 0 0
23-04-2018 16.9 (16:20) 9.6 (22:50) 13.3 9.44 (12:10) 6.67 (12:10) 0 0 0 0 0
22-04-2018 19.8 (14:00) 8.7 (00:00) 14.2 10.83 (04:40) 9.44 (03:40) 0 0 0 0 0

Gráficas

Temp. máximas Temp. mínimas Temp. medias Precipitaciones Rachas de viento máximas Velocidades máximas media en intervalos de 10 minutos

Datos horarios

Fecha y hora oficial Temperatura (ºC) Velocidad del viento (km/h) Dirección del viento Racha (km/h) Dirección de racha Precipitación (mm) Presión (hPa) Tendencia (hPa) Humedad (%)
2018-05-21 23:00:00 10.5 6 Oeste 16 Oeste 0 -- -- 79
2018-05-21 22:00:00 10.5 0 Calma 12 Oeste 0 -- -- 78
2018-05-21 21:00:00 11.1 4 Norte 20 Oeste 0 -- -- 83
2018-05-21 20:00:00 11.7 14 Sudoeste 21 Sudoeste 0 -- -- 83
2018-05-21 19:00:00 10.8 3 Noroeste 19 Noroeste 0.4 -- -- 93
2018-05-21 18:00:00 10.1 14 Noroeste 27 Noroeste 0.6 -- -- 91
2018-05-21 17:00:00 10.5 7 Sur 35 Oeste 6 -- -- 86
2018-05-21 16:00:00 15.5 6 Sudeste 18 Sudeste 0.2 -- -- 66
2018-05-21 15:00:00 13.4 10 Sudeste 23 Sur 2.8 -- -- 72
2018-05-21 14:00:00 17.8 8 Nordeste 16 Noroeste 0 -- -- 55
2018-05-21 13:00:00 16.6 8 Norte 18 Oeste 0 -- -- 51
2018-05-21 12:00:00 15.9 15 Sudoeste 25 Sudoeste 0 -- -- 57
2018-05-21 11:00:00 14.7 16 Sudoeste 25 Sudoeste 0 -- -- 66
2018-05-21 10:00:00 13.5 15 Sudoeste 24 Sudoeste 0 -- -- 73
2018-05-21 09:00:00 12 11 Sudoeste 16 Sudoeste 0 -- -- 75
2018-05-21 08:00:00 10.3 2 Noroeste 8 Oeste 0 -- -- 87
2018-05-21 07:00:00 9.6 2 Sur 17 Sudoeste 0 -- -- 89
2018-05-21 06:00:00 10 17 Sudoeste 23 Sudoeste 0 -- -- 88
2018-05-21 05:00:00 9.4 10 Sudoeste 13 Sudoeste 0 -- -- 87
2018-05-21 04:00:00 9.6 4 Sudeste 10 Sudeste 0 -- -- 84
2018-05-21 03:00:00 10.2 3 Sur 25 Sudoeste 0 -- -- 80
2018-05-21 02:00:00 10.5 19 Sudoeste 26 Sudoeste 0 -- -- 80
2018-05-21 01:00:00 10.5 18 Sudoeste 25 Sudoeste 0 -- -- 83
2018-05-21 00:00:00 10.6 20 Sudoeste 30 Sudoeste 0 -- -- 84
2018-05-20 23:00:00 10.4 20 Sudoeste 29 Sudoeste 0 -- -- 87
2018-05-20 22:00:00 11.5 14 Sudoeste 19 Sudoeste 0 -- -- 81
2018-05-20 21:00:00 12.2 9 Sudoeste 13 Sudoeste 0 -- -- 79
2018-05-20 20:00:00 13.1 11 Sudoeste 21 Sur 0 -- -- 73
2018-05-20 19:00:00 14.8 4 Este 17 Sur 0 -- -- 65
2018-05-20 18:00:00 14.8 10 Sudeste 33 Sudeste 0 -- -- 65
2018-05-20 17:00:00 15.6 14 Este 24 Nordeste 0 -- -- 59
2018-05-20 16:00:00 17.3 5 Sudeste 22 Sur 0 -- -- 50
2018-05-20 15:00:00 17.8 8 Sur 18 Sudoeste 0 -- -- 53
2018-05-20 14:00:00 15.9 8 Sudeste 18 Este 0 -- -- 63
2018-05-20 13:00:00 14.3 9 Este 19 Sur 0 -- -- 73
2018-05-20 12:00:00 13.6 10 Este 17 Sudeste 0 -- -- 71
2018-05-20 11:00:00 13.5 10 Este 15 Sudeste 0 -- -- 72
2018-05-20 10:00:00 12.7 8 Este 13 Este 0 -- -- 76
2018-05-20 09:00:00 11.6 4 Este 6 Sur 0 -- -- 81
2018-05-20 08:00:00 8.2 2 Sudoeste 5 Oeste 0 -- -- 93
2018-05-20 07:00:00 6.9 3 Sur 7 Sudeste 0 -- -- 95
2018-05-20 06:00:00 7.1 5 Sur 10 Sudeste 0 -- -- 94
2018-05-20 05:00:00 7.7 2 Sudeste 8 Sudoeste 0 -- -- 94
2018-05-20 04:00:00 8.3 0 Calma 10 Este 0 -- -- 93
2018-05-20 03:00:00 9.3 6 Sudeste 18 Sur 0 -- -- 91
2018-05-20 02:00:00 9.4 11 Sudeste 17 Sudeste 0 -- -- 96
2018-05-20 01:00:00 9.7 8 Nordeste 13 Este 0 -- -- 96
2018-05-20 00:00:00 10.5 6 Norte 15 Norte 0 -- -- 91
2018-05-19 23:00:00 10.7 5 Oeste 21 Oeste 0 -- -- 86
2018-05-19 22:00:00 10.7 8 Sudoeste 10 Sudoeste 0.2 -- -- 85
2018-05-19 21:00:00 11.1 2 Sur 19 Noroeste 0 -- -- 81
2018-05-19 20:00:00 11.6 13 Noroeste 20 Oeste 0 -- -- 81
2018-05-19 19:00:00 12.7 10 Noroeste 15 Noroeste 0 -- -- 86
2018-05-19 18:00:00 12.1 3 Sur 14 Norte 0.4 -- -- 86
2018-05-19 17:00:00 11 9 Noroeste 16 Oeste 3 -- -- 85
2018-05-19 16:00:00 10.6 12 Oeste 21 Sudoeste 3.2 -- -- 88
2018-05-19 15:00:00 11.8 8 Noroeste 15 Oeste 2.8 -- -- 86
2018-05-19 14:00:00 13.6 9 Oeste 29 Oeste 0 -- -- 73
2018-05-19 13:00:00 14.4 17 Sudoeste 30 Oeste 0 -- -- 70
2018-05-19 12:00:00 15.2 5 Nordeste 17 Nordeste 0 -- -- 68
2018-05-19 11:00:00 14.3 6 Este 14 Nordeste 0 -- -- 75
2018-05-19 10:00:00 13.1 3 Sudeste 8 Noroeste 0 -- -- 81
2018-05-19 09:00:00 11 5 Noroeste 10 Noroeste 0 -- -- 89
2018-05-19 08:00:00 10.2 7 Noroeste 13 Noroeste 0 -- -- 93
2018-05-19 07:00:00 8.2 5 Noroeste 10 Noroeste 0 -- -- 95
2018-05-19 06:00:00 8.4 5 Oeste 10 Oeste 0 -- -- 97
2018-05-19 05:00:00 7.8 4 Oeste 12 Noroeste 0 -- -- 95
2018-05-19 04:00:00 8.8 4 Noroeste 8 Sudoeste 0 -- -- 92
2018-05-19 03:00:00 9.4 4 Oeste 8 Noroeste 0 -- -- 88
2018-05-19 02:00:00 9.9 2 Noroeste 8 Oeste 0 -- -- 87
2018-05-19 01:00:00 9.9 3 Sudoeste 6 Oeste 0.2 -- -- 91
2018-05-19 00:00:00 10.2 4 Oeste 9 Oeste 0 -- -- 89
2018-05-18 23:00:00 9.9 4 Oeste 10 Oeste 0 -- -- 82
2018-05-18 22:00:00 10.4 9 Oeste 12 Oeste 0 -- -- 84
2018-05-18 21:00:00 11.7 3 Sudeste 16 Noroeste 0.8 -- -- 84
2018-05-18 20:00:00 13.8 9 Oeste 13 Noroeste 0.6 -- -- 77
2018-05-18 19:00:00 16.6 8 Sur 15 Sur 0 -- -- 59
2018-05-18 18:00:00 16.2 10 Sudoeste 17 Sudoeste 0 -- -- 71
2018-05-18 17:00:00 12.3 10 Sudoeste 19 Sudoeste 0.6 -- -- 84
2018-05-18 16:00:00 11.4 6 Sur 18 Norte 0.6 -- -- 81
2018-05-18 15:00:00 11.9 4 Noroeste 14 Noroeste 0.4 -- -- 87
2018-05-18 14:00:00 10.9 5 Noroeste 19 Norte 0 -- -- 83
2018-05-18 13:00:00 12 13 Noroeste 30 Nordeste 0 -- -- 74
2018-05-18 12:00:00 15.6 9 Nordeste 26 Este 0 -- -- 65
2018-05-18 11:00:00 14.3 4 Sudeste 15 Este 0 -- -- 70
2018-05-18 10:00:00 13 4 Sudeste 10 Este 0 -- -- 74
2018-05-18 09:00:00 11 2 Sudeste 5 Este 0 -- -- 82
2018-05-18 08:00:00 9.5 0 Calma 6 Sur 0 -- -- 87
2018-05-18 07:00:00 6.5 4 Sur 8 Sur 0 -- -- 94
2018-05-18 06:00:00 6.6 3 Sur 6 Sudoeste 0 -- -- 93
2018-05-18 05:00:00 7.3 5 Oeste 8 Sudoeste 0 -- -- 88
2018-05-18 04:00:00 7.3 0 Calma 10 Oeste 0 -- -- 87
2018-05-18 03:00:00 8.5 4 Oeste 12 Sudoeste 0 -- -- 83
2018-05-18 02:00:00 9.2 7 Oeste 14 Sudoeste 0 -- -- 79
2018-05-18 01:00:00 10.7 7 Sudoeste 12 Sudoeste 0 -- -- 77
2018-05-18 00:00:00 10.9 6 Oeste 20 Oeste 0 -- -- 75
2018-05-17 23:00:00 11.8 14 Oeste 20 Oeste 0 -- -- 73
2018-05-17 22:00:00 12.4 8 Oeste 19 Sur 0 -- -- 69
2018-05-17 21:00:00 13.2 12 Sur 22 Sudeste 0 -- -- 66
2018-05-17 20:00:00 15.9 9 Sudeste 22 Sudeste 0 -- -- 55
2018-05-17 19:00:00 16.8 14 Sudeste 28 Sudeste 0 -- -- 53
2018-05-17 18:00:00 16.7 14 Sudeste 31 Este 0 -- -- 51
2018-05-17 17:00:00 17.8 16 Nordeste 27 Nordeste 0 -- -- 48
2018-05-17 16:00:00 17.2 14 Nordeste 23 Este 0 -- -- 51
2018-05-17 15:00:00 15.6 10 Nordeste 20 Nordeste 0.2 -- -- 62
2018-05-17 14:00:00 15.7 9 Este 24 Nordeste 0 -- -- 60
2018-05-17 13:00:00 17.4 15 Nordeste 25 Nordeste 0 -- -- 54
2018-05-17 12:00:00 17.6 11 Norte 22 Nordeste 0 -- -- 53
2018-05-17 11:00:00 17.4 16 Oeste 25 Sudoeste 0 -- -- 40
2018-05-17 10:00:00 16.4 19 Sudoeste 31 Sudoeste 0 -- -- 45
2018-05-17 09:00:00 14 21 Sudoeste 28 Sudoeste 0 -- -- 56
2018-05-17 08:00:00 11.2 15 Sudoeste 21 Sudoeste 0 -- -- 76
2018-05-17 07:00:00 7.3 4 Sudeste 8 Sudeste 0 -- -- 87
2018-05-17 06:00:00 7.7 5 Sudeste 11 Sudeste 0 -- -- 84
2018-05-17 05:00:00 8.6 8 Sudeste 12 Sudeste 0 -- -- 80
2018-05-17 04:00:00 7.9 3 Sudeste 8 Sur 0 -- -- 80
2018-05-17 03:00:00 8 4 Sur 8 Sur 0 -- -- 82
2018-05-17 02:00:00 8.3 3 Sur 9 Sudoeste 0 -- -- 80
2018-05-17 01:00:00 9 5 Sur 8 Sur 0 -- -- 78
2018-05-17 00:00:00 9.5 7 Sur 9 Sur 0 -- -- 78
2018-05-16 23:00:00 11 4 Sudeste 11 Sudeste 0 -- -- 71
2018-05-16 22:00:00 12.2 6 Sudeste 10 Nordeste 0 -- -- 62
2018-05-16 21:00:00 14.1 10 Nordeste 22 Nordeste 0 -- -- 59
2018-05-16 20:00:00 16.8 11 Este 21 Nordeste 0 -- -- 51
2018-05-16 19:00:00 17.3 10 Este 23 Nordeste 0 -- -- 51
2018-05-16 18:00:00 17.3 14 Nordeste 30 Este 0 -- -- 51
2018-05-16 17:00:00 17.2 14 Nordeste 27 Nordeste 0 -- -- 51
2018-05-16 16:00:00 17.1 13 Nordeste 27 Nordeste 0 -- -- 53
2018-05-16 15:00:00 16.4 14 Este 25 Nordeste 0 -- -- 53
2018-05-16 14:00:00 16 14 Nordeste 25 Nordeste 0 -- -- 54
2018-05-16 13:00:00 16.4 14 Este 23 Nordeste 0 -- -- 53
2018-05-16 12:00:00 15.8 8 Este 15 Este 0 -- -- 55
2018-05-16 11:00:00 14.8 10 Este 15 Este 0 -- -- 55
2018-05-16 10:00:00 13.1 4 Norte 9 Norte 0 -- -- 58
2018-05-16 09:00:00 9.9 6 Norte 10 Noroeste 0 -- -- 66
2018-05-16 08:00:00 7.5 3 Noroeste 9 Noroeste 0 -- -- 76
2018-05-16 07:00:00 4.3 2 Oeste 13 Noroeste 0 -- -- 82
2018-05-16 06:00:00 4.9 9 Noroeste 15 Noroeste 0 -- -- 80
2018-05-16 05:00:00 4.9 8 Noroeste 18 Noroeste 0 -- -- 82
2018-05-16 04:00:00 4.9 10 Noroeste 21 Noroeste 0 -- -- 84
2018-05-16 03:00:00 5.3 11 Noroeste 23 Noroeste 0 -- -- 87
2018-05-16 02:00:00 5.8 13 Noroeste 23 Noroeste 0 -- -- 88
2018-05-16 01:00:00 6 16 Noroeste 26 Noroeste 0 -- -- 88
2018-05-16 00:00:00 6.1 12 Noroeste 31 Norte 0 -- -- 88
2018-05-15 23:00:00 6.3 16 Noroeste 27 Noroeste 0 -- -- 88
2018-05-15 22:00:00 7 15 Norte 27 Noroeste 0 -- -- 86
2018-05-15 21:00:00 8.3 18 Noroeste 32 Norte 0 -- -- 80
2018-05-15 20:00:00 10.9 22 Norte 37 Norte 0 -- -- 71
2018-05-15 19:00:00 12.2 24 Norte 34 Norte 0 -- -- 66
2018-05-15 18:00:00 13 21 Norte 35 Norte 0 -- -- 61
2018-05-15 17:00:00 13.2 22 Norte 33 Norte 0 -- -- 61
2018-05-15 16:00:00 13 18 Norte 30 Norte 0 -- -- 59
2018-05-15 15:00:00 12.5 17 Norte 34 Norte 0 -- -- 60
2018-05-15 14:00:00 11 18 Norte 33 Noroeste 0 -- -- 64
2018-05-15 13:00:00 9.7 26 Noroeste 44 Noroeste 0 -- -- 67
2018-05-15 12:00:00 8.4 23 Norte 41 Noroeste 0 -- -- 69
2018-05-15 11:00:00 7.5 28 Norte 45 Norte 0 -- -- 72
2018-05-15 10:00:00 5.1 29 Norte 46 Norte 0 -- -- 82
2018-05-15 09:00:00 3.8 28 Norte 44 Norte 0 -- -- 87
2018-05-15 08:00:00 3.4 17 Norte 32 Norte 0 -- -- 88
2018-05-15 07:00:00 3.2 18 Noroeste 39 Noroeste 0 -- -- 87
2018-05-15 06:00:00 3.1 21 Noroeste 41 Norte 0 -- -- 88
2018-05-15 05:00:00 2.9 22 Noroeste 41 Noroeste 0 -- -- 88
2018-05-15 04:00:00 2.9 24 Noroeste 45 Norte 0 -- -- 86
2018-05-15 03:00:00 2.8 21 Noroeste 40 Noroeste 0 -- -- 85
2018-05-15 02:00:00 2.7 23 Noroeste 42 Noroeste 0 -- -- 82
2018-05-15 01:00:00 3.3 29 Noroeste 48 Noroeste 0 -- -- 81
2018-05-15 00:00:00 3.9 35 Norte 57 Noroeste 0 -- -- 81
2018-05-14 23:00:00 4.6 27 Norte 45 Norte 0 -- -- 82
2018-05-14 22:00:00 4.8 37 Noroeste 53 Noroeste 0 -- -- 85
2018-05-14 21:00:00 6.1 32 Norte 53 Norte 0 -- -- 74
2018-05-14 20:00:00 9 33 Norte 48 Norte 0 -- -- 57
2018-05-14 19:00:00 10.9 31 Norte 45 Norte 0 -- -- 48
2018-05-14 18:00:00 12.2 37 Noroeste 51 Noroeste 0 -- -- 41
2018-05-14 17:00:00 12.5 31 Noroeste 46 Norte 0 -- -- 48
2018-05-14 16:00:00 12 34 Noroeste 51 Noroeste 0 -- -- 45
2018-05-14 15:00:00 10.9 26 Norte 41 Norte 0 -- -- 53
2018-05-14 14:00:00 10.2 24 Norte 45 Norte 0 -- -- 58
2018-05-14 13:00:00 10.7 27 Noroeste 42 Noroeste 0 -- -- 60
2018-05-14 12:00:00 9.5 28 Noroeste 41 Noroeste 0 -- -- 61
2018-05-14 11:00:00 7.5 27 Noroeste 41 Noroeste 0 -- -- 69
2018-05-14 10:00:00 6.7 30 Noroeste 40 Noroeste 0 -- -- 72
2018-05-14 09:00:00 6.3 24 Noroeste 32 Noroeste 0 -- -- 75
2018-05-14 08:00:00 4 16 Norte 35 Noroeste 0 -- -- 87
2018-05-14 07:00:00 2.1 16 Noroeste 22 Noroeste 0 -- -- 93
2018-05-14 06:00:00 1.4 10 Noroeste 15 Noroeste 0 -- -- 95
2018-05-14 05:00:00 1.1 9 Noroeste 12 Noroeste 0 -- -- 93
2018-05-14 04:00:00 1.6 8 Norte 12 Norte 0 -- -- 89
2018-05-14 03:00:00 2.8 10 Noroeste 19 Noroeste 0 -- -- 88
2018-05-14 02:00:00 3.8 12 Norte 16 Noroeste 0 -- -- 81
2018-05-14 01:00:00 4 10 Noroeste 21 Norte 0 -- -- 80
2018-05-11 20:00:00 19.3 12 Sudeste 20 Sudeste 0 -- -- 52
2018-05-11 19:00:00 19.9 9 Sudeste 17 Sudeste 0 -- -- 52
2018-05-11 18:00:00 20.6 4 Nordeste 28 Norte 0 -- -- 47
2018-05-11 17:00:00 21.1 13 Noroeste 28 Noroeste 0 -- -- 41
2018-05-11 16:00:00 21.6 11 Noroeste 31 Noroeste 0 -- -- 37
2018-05-11 15:00:00 21 16 Noroeste 32 Noroeste 0 -- -- 41
2018-05-11 14:00:00 20.5 8 Noroeste 31 Noroeste 0 -- -- 42
2018-05-11 13:00:00 20.2 13 Noroeste 33 Oeste 0 -- -- 46
2018-05-11 12:00:00 19.2 14 Noroeste 31 Noroeste 0 -- -- 49
2018-05-11 11:00:00 17.8 13 Sudoeste 28 Sudoeste 0 -- -- 60
2018-05-11 10:00:00 15.2 19 Sudoeste 30 Sudoeste 0 -- -- 67
2018-05-11 09:00:00 13 21 Sudoeste 30 Sudoeste 0 -- -- 75
2018-05-11 08:00:00 10.2 22 Sudoeste 27 Sudoeste 0 -- -- 84
2018-05-11 07:00:00 7.7 21 Sudoeste 27 Sudoeste 0 -- -- 92
2018-05-11 06:00:00 7.6 22 Sudoeste 28 Sudoeste 0 -- -- 92
2018-05-11 05:00:00 8.5 24 Sudoeste 30 Sudoeste 0 -- -- 89
2018-05-11 04:00:00 8.9 24 Sudoeste 29 Sudoeste 0 -- -- 90
2018-05-11 03:00:00 9.3 24 Sudoeste 31 Sudoeste 0 -- -- 88
2018-05-11 02:00:00 8.3 22 Sudoeste 27 Sudoeste 0 -- -- 85
2018-05-11 01:00:00 8.8 11 Sur 21 Sur 0 -- -- 77
2018-05-11 00:00:00 7.3 5 Sur 15 Este 0 -- -- 82
2018-05-10 23:00:00 7 0 Calma 10 Sur 0 -- -- 81
2018-05-10 22:00:00 7.3 3 Sur 9 Sur 0 -- -- 78
2018-05-10 21:00:00 9.3 8 Norte 19 Norte 0 -- -- 73
2018-05-10 20:00:00 12.1 12 Nordeste 24 Nordeste 0 -- -- 63
2018-05-10 19:00:00 13.6 17 Norte 31 Norte 0 -- -- 60
2018-05-10 18:00:00 14.5 12 Norte 24 Nordeste 0 -- -- 56
2018-05-10 17:00:00 14.7 16 Norte 30 Norte 0 -- -- 55
2018-05-10 16:00:00 14.2 15 Nordeste 32 Norte 0 -- -- 53
2018-05-10 15:00:00 14.4 18 Norte 38 Norte 0 -- -- 52
2018-05-10 14:00:00 13.7 24 Norte 37 Norte 0 -- -- 57
2018-05-10 13:00:00 13.1 24 Norte 39 Norte 0 -- -- 54
2018-05-10 12:00:00 11.4 26 Norte 38 Noroeste 0 -- -- 56
2018-05-10 11:00:00 10 24 Noroeste 33 Norte 0 -- -- 72
2018-05-10 10:00:00 7.1 17 Norte 40 Norte 0 -- -- 73
2018-05-10 09:00:00 6.2 20 Norte 38 Noroeste 0 -- -- 88
2018-05-10 08:00:00 6.1 31 Noroeste 43 Noroeste 0 -- -- 89
2018-05-10 07:00:00 6 27 Noroeste 43 Noroeste 0 -- -- 89
2018-05-10 06:00:00 6.3 22 Noroeste 41 Norte 0 -- -- 91
2018-05-10 05:00:00 6.3 26 Noroeste 39 Noroeste 0 -- -- 91
2018-05-10 04:00:00 6.8 22 Noroeste 37 Noroeste 0 -- -- 84
2018-05-10 03:00:00 7.5 12 Noroeste 21 Noroeste 0 -- -- 87
2018-05-10 02:00:00 7.6 13 Noroeste 22 Noroeste 0 -- -- 84
2018-05-10 01:00:00 7.7 13 Norte 27 Noroeste 0 -- -- 82
2018-05-10 00:00:00 7.9 14 Noroeste 28 Noroeste 0 -- -- 83
2018-05-09 23:00:00 8.6 12 Noroeste 26 Norte 0 -- -- 89
2018-05-09 22:00:00 9.7 12 Norte 26 Norte 0 -- -- 85
2018-05-09 21:00:00 12 13 Norte 20 Norte 0 -- -- 76
2018-05-09 20:00:00 16.1 13 Norte 22 Norte 0 -- -- 60
2018-05-09 19:00:00 18 13 Norte 27 Norte 0 -- -- 54
2018-05-09 18:00:00 19.3 12 Norte 26 Noroeste 0 -- -- 46
2018-05-09 17:00:00 19 18 Norte 30 Norte 0 -- -- 42
2018-05-09 16:00:00 18.7 12 Norte 25 Norte 0 -- -- 39
2018-05-09 15:00:00 18.5 14 Noroeste 28 Noroeste 0 -- -- 40
2018-05-09 14:00:00 17.5 17 Noroeste 31 Noroeste 0 -- -- 45
2018-05-09 13:00:00 16 16 Norte 30 Norte 0 -- -- 52
2018-05-09 12:00:00 14.8 19 Norte 27 Noroeste 0 -- -- 56
2018-05-09 11:00:00 13.7 15 Noroeste 25 Noroeste 0 -- -- 59
2018-05-09 10:00:00 12.8 14 Noroeste 21 Noroeste 0 -- -- 67
2018-05-09 09:00:00 10.3 14 Noroeste 20 Noroeste 0 -- -- 86
2018-05-09 08:00:00 8.3 15 Noroeste 21 Noroeste 0 -- -- 97
2018-05-09 07:00:00 7.3 10 Noroeste 19 Noroeste 0 -- -- 96
2018-05-09 06:00:00 8.3 6 Noroeste 13 Norte 0 -- -- 93
2018-05-09 05:00:00 8.5 0 Calma 7 Noroeste 0 -- -- 93
2018-05-09 04:00:00 8.5 7 Noroeste 18 Noroeste 0 -- -- 92
2018-05-09 03:00:00 7.8 10 Noroeste 25 Noroeste 0 -- -- 91
2018-05-09 02:00:00 8.3 15 Noroeste 26 Noroeste 0 -- -- 90
2018-05-09 01:00:00 8.8 18 Norte 24 Noroeste 0 -- -- 90
2018-05-09 00:00:00 9.4 15 Norte 29 Norte 0 -- -- 90
2018-05-08 23:00:00 10.2 15 Norte 32 Noroeste 0 -- -- 89
2018-05-08 22:00:00 10.8 20 Norte 36 Norte 0 -- -- 89
2018-05-08 21:00:00 11.7 21 Norte 40 Norte 0 -- -- 85
2018-05-08 20:00:00 14.8 20 Nordeste 37 Norte 0 -- -- 70
2018-05-08 19:00:00 16.8 23 Norte 33 Norte 0 -- -- 62
2018-05-08 18:00:00 16.8 20 Norte 36 Nordeste 0 -- -- 60
2018-05-08 17:00:00 18 22 Norte 40 Norte 0 -- -- 58
2018-05-08 16:00:00 17.4 22 Nordeste 37 Norte 0 -- -- 61
2018-05-08 15:00:00 16.6 21 Norte 37 Noroeste 0 -- -- 62
2018-05-08 14:00:00 17.5 30 Norte 41 Norte 0 -- -- 57
2018-05-08 13:00:00 17.5 23 Norte 37 Noroeste 0 -- -- 55
2018-05-08 12:00:00 15.9 20 Noroeste 33 Noroeste 0 -- -- 72
2018-05-08 11:00:00 13.4 18 Norte 27 Norte 0 -- -- 78
2018-05-08 10:00:00 12.9 13 Norte 20 Norte 0 -- -- 88
2018-05-08 09:00:00 12.3 5 Norte 9 Norte 0 -- -- 90
2018-05-08 08:00:00 11.9 4 Norte 13 Noroeste 0 -- -- 91
2018-05-08 07:00:00 9.7 4 Norte 10 Noroeste 0 -- -- 93
2018-05-08 06:00:00 9.7 2 Noroeste 8 Norte 0 -- -- 94
2018-05-08 05:00:00 9.7 3 Norte 12 Noroeste 0 -- -- 93
2018-05-08 04:00:00 10.4 3 Norte 7 Oeste 0 -- -- 87
2018-05-08 03:00:00 9.9 4 Sur 8 Sudoeste 0 -- -- 88
2018-05-08 02:00:00 9.5 5 Sur 8 Sur 0 -- -- 93
2018-05-08 01:00:00 10.4 8 Sur 9 Sur 0 -- -- 92
2018-05-08 00:00:00 10.6 3 Sudoeste 9 Sudoeste 0 -- -- 90
2018-05-07 23:00:00 11.3 4 Sudoeste 6 Sudoeste 0 -- -- 89
2018-05-07 22:00:00 11.5 3 Sur 18 Sudoeste 0 -- -- 85
2018-05-07 21:00:00 13.3 3 Sudeste 13 Este 0 -- -- 82
2018-05-07 20:00:00 14.6 8 Nordeste 17 Este 0 -- -- 78
2018-05-07 19:00:00 14 4 Este 17 Nordeste 0 -- -- 86
2018-05-07 18:00:00 14.1 5 Este 24 Este 2 -- -- 80
2018-05-07 17:00:00 17.1 14 Sudeste 25 Sudeste 0 -- -- 66
2018-05-07 16:00:00 16.2 11 Este 22 Este 0 -- -- 69
2018-05-07 15:00:00 15.1 13 Este 23 Este 0 -- -- 76
2018-05-07 14:00:00 14.4 12 Este 23 Este 0 -- -- 79
2018-05-07 13:00:00 13.2 5 Este 20 Sudeste 0.2 -- -- 87
2018-05-07 12:00:00 11.7 8 Sudeste 19 Este 0.4 -- -- 92
2018-05-07 11:00:00 11.8 10 Este 15 Sudeste 0 -- -- 88
2018-05-07 10:00:00 11.6 9 Este 14 Este 0.6 -- -- 87
2018-05-07 09:00:00 11.6 6 Sudeste 9 Sudeste 0.2 -- -- 86
2018-05-07 08:00:00 10.6 4 Sur 5 Sur 0 -- -- 82
2018-05-07 07:00:00 10.3 3 Sur 5 Sur 0 -- -- 81
2018-05-07 06:00:00 10 4 Sur 8 Sudeste 0 -- -- 82
2018-05-07 05:00:00 8.8 4 Sur 8 Sur 0 -- -- 81
2018-05-07 04:00:00 8.9 6 Sur 8 Sur 0 -- -- 79
2018-05-07 03:00:00 9.4 4 Sur 7 Sur 0 -- -- 76
2018-05-07 02:00:00 9.9 5 Sur 8 Sur 0 -- -- 75
2018-05-07 01:00:00 9.9 5 Sur 8 Sur 0 -- -- 75
2018-05-07 00:00:00 10.1 6 Sur 9 Sur 0 -- -- 75
2018-05-06 23:00:00 10.2 6 Sur 9 Sur 0 -- -- 79
2018-05-06 22:00:00 11 7 Sudeste 10 Sudeste 0 -- -- 80
2018-05-06 21:00:00 12.9 7 Sudeste 18 Sudeste 0 -- -- 71
2018-05-06 20:00:00 14.5 13 Sudeste 19 Sudeste 0 -- -- 64
2018-05-06 19:00:00 15.4 12 Sudeste 24 Este 0 -- -- 57
2018-05-06 18:00:00 16.9 13 Este 22 Este 0 -- -- 53
2018-05-06 17:00:00 17.3 15 Este 25 Este 0 -- -- 52
2018-05-06 16:00:00 18.6 9 Nordeste 26 Este 0 -- -- 44
2018-05-06 15:00:00 17.7 13 Este 26 Este 0 -- -- 52
2018-05-06 14:00:00 17.8 15 Sudeste 30 Sudeste 0 -- -- 52
2018-05-06 13:00:00 17.6 11 Este 22 Este 0 -- -- 50
2018-05-06 12:00:00 16.8 10 Sudeste 17 Este 0 -- -- 56
2018-05-06 11:00:00 16.6 5 Este 9 Nordeste 0 -- -- 58
2018-05-06 10:00:00 14.5 6 Este 10 Este 0 -- -- 66
2018-05-06 09:00:00 12.4 0 Calma 4 Sudoeste 0 -- -- 74
2018-05-06 08:00:00 8.4 3 Sudoeste 10 Sudoeste 0 -- -- 91
2018-05-06 07:00:00 6.5 0 Calma 8 Sudoeste 0 -- -- 90
2018-05-06 06:00:00 7 3 Sur 5 Sur 0 -- -- 87
2018-05-06 05:00:00 7.2 4 Sur 7 Sur 0 -- -- 86
2018-05-06 04:00:00 7.4 4 Sur 8 Noroeste 0 -- -- 83
2018-05-06 03:00:00 8.1 2 Sudoeste 8 Sur 0 -- -- 82
2018-05-06 02:00:00 8.7 5 Sur 9 Sur 0 -- -- 82
2018-05-06 01:00:00 9.6 5 Sur 8 Sur 0 -- -- 86
2018-05-06 00:00:00 10.3 5 Sur 10 Sudeste 0 -- -- 82
2018-05-05 23:00:00 10.7 4 Sudeste 11 Nordeste 0.2 -- -- 83
2018-05-05 22:00:00 11.6 3 Sudeste 17 Nordeste 0 -- -- 77
2018-05-05 21:00:00 12.8 8 Este 22 Este 0 -- -- 66
2018-05-05 20:00:00 14 13 Este 24 Este 0 -- -- 61
2018-05-05 19:00:00 16.2 17 Este 29 Nordeste 0 -- -- 55
2018-05-05 18:00:00 16.8 17 Este 33 Nordeste 0 -- -- 51
2018-05-05 17:00:00 16 14 Este 31 Nordeste 0 -- -- 55
2018-05-05 16:00:00 16.7 15 Nordeste 32 Este 0 -- -- 52
2018-05-05 15:00:00 16.3 15 Nordeste 27 Nordeste 0 -- -- 51
2018-05-05 14:00:00 16.3 9 Nordeste 19 Nordeste 0 -- -- 52
2018-05-05 13:00:00 15.6 8 Nordeste 21 Nordeste 0 -- -- 55
2018-05-05 12:00:00 15.8 8 Noroeste 15 Noroeste 0 -- -- 55
2018-05-05 11:00:00 12.7 9 Norte 16 Noroeste 0 -- -- 61
2018-05-05 10:00:00 11.1 9 Norte 17 Norte 0 -- -- 68
2018-05-05 09:00:00 9.3 8 Norte 13 Noroeste 0 -- -- 74
2018-05-05 08:00:00 6.2 9 Norte 14 Noroeste 0 -- -- 86
2018-05-05 07:00:00 3.6 4 Noroeste 11 Noroeste 0 -- -- 90
2018-05-05 06:00:00 4 9 Noroeste 12 Noroeste 0 -- -- 89
2018-05-05 05:00:00 4.8 2 Norte 12 Noroeste 0 -- -- 88
2018-05-05 04:00:00 4 5 Noroeste 9 Norte 0 -- -- 88
2018-05-05 03:00:00 4.2 6 Norte 15 Noroeste 0 -- -- 87
2018-05-05 02:00:00 4.1 9 Noroeste 15 Noroeste 0 -- -- 88
2018-05-05 01:00:00 4.1 11 Noroeste 20 Noroeste 0 -- -- 88
2018-05-05 00:00:00 4.4 8 Noroeste 28 Noroeste 0 -- -- 87
2018-05-04 23:00:00 5 17 Noroeste 29 Noroeste 0 -- -- 85
2018-05-04 22:00:00 5.6 14 Noroeste 25 Noroeste 0 -- -- 83
2018-05-04 21:00:00 7.2 15 Norte 31 Norte 0 -- -- 77
2018-05-04 20:00:00 9.9 18 Norte 33 Norte 0 -- -- 67
2018-05-04 19:00:00 11 21 Norte 33 Norte 0 -- -- 62
2018-05-04 18:00:00 12.6 22 Norte 35 Norte 0 -- -- 56
2018-05-04 17:00:00 12.9 24 Norte 39 Norte 0 -- -- 53
2018-05-04 16:00:00 13 22 Norte 36 Norte 0 -- -- 55
2018-05-04 15:00:00 12.5 26 Norte 37 Norte 0 -- -- 56
2018-05-04 14:00:00 11.6 22 Norte 34 Norte 0 -- -- 59
2018-05-04 13:00:00 10 23 Norte 35 Norte 0 -- -- 63
2018-05-04 12:00:00 9.6 25 Norte 39 Norte 0 -- -- 62
2018-05-04 11:00:00 8.1 28 Norte 42 Norte 0 -- -- 67
2018-05-04 10:00:00 6.9 30 Norte 41 Norte 0 -- -- 73
2018-05-04 09:00:00 4.1 24 Norte 44 Norte 0 -- -- 86
2018-05-04 08:00:00 3 26 Norte 42 Noroeste 0 -- -- 91
2018-05-04 07:00:00 2.4 27 Norte 48 Norte 0 -- -- 92
2018-05-04 06:00:00 2.1 26 Noroeste 37 Noroeste 0 -- -- 92
2018-05-04 05:00:00 1.9 28 Noroeste 40 Noroeste 0 -- -- 90
2018-05-04 04:00:00 1.8 22 Noroeste 39 Noroeste 0 -- -- 90
2018-05-04 03:00:00 2 28 Noroeste 50 Noroeste 0 -- -- 89
2018-05-04 02:00:00 1.7 28 Noroeste 43 Noroeste 0 -- -- 89
2018-05-04 01:00:00 1.8 27 Noroeste 50 Noroeste 0 -- -- 87
2018-05-04 00:00:00 2 30 Noroeste 50 Noroeste 0 -- -- 85
2018-05-03 23:00:00 2.3 33 Noroeste 58 Norte 0 -- -- 84
2018-05-03 22:00:00 3.3 32 Noroeste 50 Noroeste 0 -- -- 82
2018-05-03 21:00:00 4.6 31 Noroeste 49 Noroeste 0 -- -- 77
2018-05-03 20:00:00 5.6 36 Noroeste 49 Noroeste 0 -- -- 77
2018-05-03 19:00:00 6.5 37 Noroeste 54 Noroeste 0 -- -- 74
2018-05-03 18:00:00 8.9 35 Norte 51 Noroeste 0 -- -- 65
2018-05-03 17:00:00 8.6 34 Noroeste 53 Noroeste 0 -- -- 64
2018-05-03 16:00:00 8.7 35 Noroeste 57 Noroeste 0 -- -- 64
2018-05-03 15:00:00 8.4 33 Noroeste 55 Noroeste 0 -- -- 65
2018-05-03 14:00:00 7.9 38 Noroeste 54 Noroeste 0 -- -- 65
2018-05-03 13:00:00 8.9 30 Norte 53 Noroeste 0 -- -- 55
2018-05-03 12:00:00 9 37 Noroeste 53 Noroeste 0 -- -- 57
2018-05-03 11:00:00 7.5 33 Norte 53 Noroeste 0 -- -- 64
2018-05-03 10:00:00 6.7 41 Noroeste 62 Noroeste 0 -- -- 64
2018-05-03 09:00:00 5.9 40 Noroeste 54 Norte 0 -- -- 78
2018-05-03 08:00:00 5 38 Norte 59 Noroeste 0 -- -- 86
2018-05-03 07:00:00 6.1 33 Noroeste 53 Noroeste 0 -- -- 86
2018-05-03 06:00:00 6.7 28 Noroeste 44 Noroeste 0 -- -- 86
2018-05-03 05:00:00 6.9 25 Noroeste 44 Noroeste 0 -- -- 86
2018-05-03 04:00:00 6.8 26 Noroeste 40 Noroeste 0 -- -- 87
2018-05-03 03:00:00 6.8 24 Noroeste 41 Noroeste 0 -- -- 86
2018-05-03 02:00:00 7.1 26 Noroeste 34 Noroeste 0 -- -- 82
2018-05-03 01:00:00 6.2 22 Noroeste 37 Noroeste 0 -- -- 90
2018-05-03 00:00:00 5.8 15 Noroeste 29 Noroeste 0 -- -- 90
2018-05-02 23:00:00 6.5 21 Norte 33 Norte 0 -- -- 87
2018-05-02 22:00:00 6.5 14 Noroeste 37 Noroeste 0 -- -- 85
2018-05-02 21:00:00 8.2 26 Norte 37 Norte 0 -- -- 73
2018-05-02 20:00:00 10.5 23 Norte 37 Norte 0 -- -- 59
2018-05-02 19:00:00 12.3 23 Norte 39 Norte 0 -- -- 46
2018-05-02 18:00:00 13.2 26 Noroeste 42 Noroeste 0 -- -- 42
2018-05-02 17:00:00 13.7 32 Norte 48 Noroeste 0 -- -- 41
2018-05-02 16:00:00 13.5 31 Noroeste 47 Noroeste 0 -- -- 43
2018-05-02 15:00:00 11.2 30 Noroeste 52 Norte 0 -- -- 48
2018-05-02 14:00:00 11.6 31 Noroeste 48 Noroeste 0 -- -- 45
2018-05-02 13:00:00 10.7 27 Noroeste 43 Noroeste 0 -- -- 47
2018-05-02 12:00:00 11 23 Noroeste 40 Noroeste 0 -- -- 47
2018-05-02 11:00:00 9.3 24 Noroeste 42 Noroeste 0 -- -- 51
2018-05-02 10:00:00 8.3 24 Noroeste 35 Noroeste 0 -- -- 51
2018-05-02 09:00:00 8.1 19 Oeste 28 Oeste 0 -- -- 55
2018-05-02 08:00:00 4.6 8 Noroeste 26 Oeste 0 -- -- 71
2018-05-02 07:00:00 1 0 Calma 10 Oeste 0 -- -- 85
2018-05-02 06:00:00 1.3 8 Noroeste 14 Noroeste 0 -- -- 84
2018-05-02 05:00:00 1.4 12 Noroeste 15 Noroeste 0 -- -- 83
2018-05-02 04:00:00 1.4 4 Noroeste 8 Oeste 0 -- -- 81
2018-05-02 03:00:00 1.2 5 Oeste 7 Oeste 0 -- -- 83
2018-05-02 02:00:00 1.1 2 Sudoeste 13 Oeste 0 -- -- 80
2018-05-02 01:00:00 1.7 8 Oeste 14 Noroeste 0 -- -- 82
2018-05-02 00:00:00 2.2 10 Oeste 13 Noroeste 0 -- -- 81
2018-05-01 23:00:00 2.7 7 Oeste 11 Noroeste 0 -- -- 78
2018-05-01 22:00:00 3.8 4 Noroeste 9 Noroeste 0 -- -- 73
2018-05-01 21:00:00 5 7 Norte 23 Noroeste 0 -- -- 66
2018-05-01 20:00:00 7.6 14 Norte 29 Noroeste 0 -- -- 53
2018-05-01 19:00:00 8.7 16 Norte 30 Norte 0 -- -- 46
2018-05-01 18:00:00 9.1 19 Noroeste 36 Noroeste 0 -- -- 47
2018-05-01 17:00:00 9.3 15 Norte 35 Noroeste 0 -- -- 51
2018-05-01 16:00:00 8.6 14 Noroeste 29 Noroeste 0 -- -- 49
2018-05-01 15:00:00 8.2 17 Norte 40 Noroeste 0 -- -- 55
2018-05-01 14:00:00 6.7 19 Norte 45 Noroeste 0 -- -- 60
2018-05-01 13:00:00 5.8 25 Norte 39 Noroeste 0 -- -- 65
2018-05-01 12:00:00 4.5 21 Noroeste 39 Noroeste 0 -- -- 73
2018-05-01 11:00:00 4 30 Noroeste 42 Noroeste 0 -- -- 75
2018-05-01 10:00:00 3.3 23 Noroeste 33 Noroeste 0 -- -- 83
2018-05-01 09:00:00 1.3 22 Noroeste 33 Noroeste 0 -- -- 88
2018-05-01 08:00:00 0.8 18 Noroeste 40 Noroeste 0 -- -- 91
2018-05-01 07:00:00 0.5 17 Noroeste 26 Noroeste 0 -- -- 93
2018-05-01 06:00:00 0.2 15 Noroeste 24 Noroeste 0 -- -- 95
2018-05-01 05:00:00 0.7 15 Noroeste 28 Noroeste 0 -- -- 91
2018-05-01 04:00:00 0.5 14 Noroeste 22 Noroeste 0 -- -- 95
2018-05-01 03:00:00 1 14 Noroeste 25 Noroeste 0 -- -- 94
2018-05-01 02:00:00 1.1 7 Noroeste 17 Oeste 0 -- -- 96
2018-05-01 01:00:00 0.7 6 Noroeste 11 Oeste 0 -- -- 95
2018-05-01 00:00:00 0.3 5 Noroeste 17 Oeste 0 -- -- 93
2018-04-30 23:00:00 1.2 10 Oeste 15 Oeste 0 -- -- 91
2018-04-30 22:00:00 2.1 13 Sudoeste 24 Sudoeste 0 -- -- 91
2018-04-30 21:00:00 1.5 3 Sudoeste 8 Norte 0 -- -- 92
2018-04-30 20:00:00 1.8 4 Norte 35 Noroeste 0 -- -- 92
2018-04-30 19:00:00 3.7 17 Noroeste 30 Oeste 0 -- -- 83
2018-04-30 18:00:00 3.7 26 Noroeste 43 Noroeste 0.2 -- -- 88
2018-04-30 17:00:00 6.8 13 Noroeste 26 Oeste 0.2 -- -- 64
2018-04-30 16:00:00 7.8 12 Sudoeste 23 Noroeste 0 -- -- 51
2018-04-30 15:00:00 6.4 23 Noroeste 32 Oeste 0 -- -- 62
2018-04-30 14:00:00 8.1 15 Oeste 32 Oeste -- -- -- 46
2018-04-30 13:00:00 8.3 17 Oeste 29 Oeste 0 -- -- 49
2018-04-30 12:00:00 6.5 11 Oeste 31 Oeste 0 -- -- 57
2018-04-30 11:00:00 5.2 10 Oeste 24 Sudoeste 0 -- -- 67
2018-04-30 10:00:00 5 15 Oeste 28 Sudoeste 0 -- -- 73
2018-04-30 09:00:00 2.6 14 Oeste 22 Oeste 0 -- -- 84
2018-04-30 08:00:00 1.1 12 Oeste 23 Oeste 0 -- -- 88
2018-04-30 07:00:00 0.7 14 Sudoeste 27 Oeste 0 -- -- 90
2018-04-30 06:00:00 0.7 17 Sudoeste 32 Oeste 0 -- -- 91
2018-04-30 05:00:00 1 20 Oeste 31 Sudoeste 0 -- -- 91
2018-04-30 04:00:00 1.2 19 Oeste 39 Oeste 0 -- -- 90
2018-04-30 03:00:00 1.8 24 Oeste 44 Oeste 0 -- -- 89
2018-04-30 02:00:00 2.3 15 Oeste 29 Oeste 0 -- -- 90
2018-04-30 01:00:00 2.8 6 Sudoeste 28 Oeste 0 -- -- 84
2018-04-30 00:00:00 2.7 15 Oeste 26 Sudoeste 0 -- -- 85
2018-04-29 23:00:00 2.9 13 Oeste 32 Oeste 0 -- -- 83
2018-04-29 22:00:00 3.3 17 Oeste 36 Sudoeste 0 -- -- 79
2018-04-29 21:00:00 4.1 19 Oeste 44 Oeste 0 -- -- 75
2018-04-29 20:00:00 5.1 22 Oeste 53 Oeste 0 -- -- 74
2018-04-29 19:00:00 5.1 26 Oeste 59 Oeste 0 -- -- 72
2018-04-29 18:00:00 7.4 30 Oeste 56 Oeste 0 -- -- 66
2018-04-29 17:00:00 8.5 31 Oeste 57 Oeste 0 -- -- 59
2018-04-29 16:00:00 8.8 30 Oeste 55 Oeste 0.2 -- -- 62
2018-04-29 15:00:00 7.2 28 Oeste 56 Oeste 0 -- -- 68
2018-04-29 14:00:00 5.5 19 Oeste 51 Oeste -- -- -- 70
2018-04-29 13:00:00 6 19 Oeste 41 Oeste 0 -- -- 65
2018-04-29 12:00:00 6.5 19 Oeste 41 Oeste 0 -- -- 70
2018-04-29 11:00:00 7.4 15 Oeste 34 Sudoeste 0 -- -- 67
2018-04-29 10:00:00 6.3 14 Sudoeste 37 Sudoeste 0 -- -- 76
2018-04-29 09:00:00 5.2 9 Oeste 26 Sudoeste 0 -- -- 75
2018-04-29 08:00:00 5.8 4 Oeste 17 Oeste 0 -- -- 69
2018-04-29 07:00:00 5.3 8 Noroeste 25 Oeste 0 -- -- 67
2018-04-29 06:00:00 6.2 15 Oeste 30 Oeste 0 -- -- 66
2018-04-29 05:00:00 5.6 12 Oeste 22 Oeste 0 -- -- 68
2018-04-29 04:00:00 5.5 9 Oeste 23 Oeste 0 -- -- 70
2018-04-29 03:00:00 6.3 2 Oeste 14 Oeste 0 -- -- 69
2018-04-29 02:00:00 7 7 Oeste 20 Oeste 0 -- -- 68
2018-04-29 01:00:00 8.3 13 Oeste 21 Oeste 0 -- -- 61
2018-04-29 00:00:00 8.9 9 Oeste 14 Oeste 0 -- -- 64
2018-04-28 23:00:00 9.2 9 Oeste 17 Oeste 0 -- -- 67
2018-04-28 22:00:00 10.6 9 Oeste 15 Oeste 0 -- -- 70
2018-04-28 21:00:00 11.8 3 Oeste 17 Noroeste 0 -- -- 66
2018-04-28 20:00:00 14.5 9 Noroeste 27 Sudoeste 0 -- -- 54
2018-04-28 19:00:00 15.4 12 Sudoeste 31 Sudoeste 0 -- -- 46
2018-04-28 18:00:00 15.9 15 Sudoeste 36 Sudoeste 0 -- -- 42
2018-04-28 17:00:00 17.9 15 Sudoeste 36 Sur 0 -- -- 37
2018-04-28 16:00:00 18.5 22 Sudoeste 41 Sudoeste 0 -- -- 31
2018-04-28 15:00:00 18.5 19 Sudoeste 37 Sur 0 -- -- 34
2018-04-28 14:00:00 18.5 18 Sur 37 Sur 0 -- -- 40
2018-04-28 13:00:00 17.7 20 Sur 39 Sudoeste 0 -- -- 43
2018-04-28 12:00:00 16.9 17 Sudoeste 36 Sudoeste 0 -- -- 50
2018-04-28 11:00:00 16 18 Sudoeste 32 Sudoeste 0 -- -- 53
2018-04-28 10:00:00 14 13 Sur 24 Sur 0 -- -- 63
2018-04-28 09:00:00 11.7 10 Sur 16 Sudoeste 0 -- -- 69
2018-04-28 08:00:00 9.1 11 Sudoeste 16 Sudoeste 0 -- -- 78
2018-04-28 07:00:00 5.9 14 Sudoeste 17 Sudoeste 0 -- -- 87
2018-04-28 06:00:00 5.9 16 Sudoeste 18 Sudoeste 0 -- -- 88
2018-04-28 05:00:00 7 15 Sudoeste 19 Sudoeste 0 -- -- 90
2018-04-28 04:00:00 7.5 16 Sudoeste 18 Sudoeste 0 -- -- 93
2018-04-28 03:00:00 8.4 14 Sudoeste 18 Sudoeste 0 -- -- 93
2018-04-28 02:00:00 9.6 13 Sur 17 Sur 0 -- -- 93
2018-04-28 01:00:00 9.5 0 Calma 8 Sudeste 0 -- -- 96
2018-04-28 00:00:00 9.8 4 Sur 8 Este 0 -- -- 93
2018-04-27 23:00:00 11.6 5 Nordeste 11 Norte 0 -- -- 92
2018-04-27 22:00:00 11.3 2 Sudoeste 9 Este 0 -- -- 89
2018-04-27 21:00:00 12.7 6 Sudeste 11 Sudeste 0 -- -- 82
2018-04-27 20:00:00 15.4 9 Este 25 Este 0 -- -- 69
2018-04-27 19:00:00 15.9 14 Este 22 Este 0 -- -- 71
2018-04-27 18:00:00 15 11 Este 22 Este 0.8 -- -- 76
2018-04-27 17:00:00 15.2 13 Este 32 Nordeste 0.2 -- -- 77
2018-04-27 16:00:00 20.1 18 Noroeste 35 Oeste 0 -- -- 56
2018-04-27 15:00:00 20.1 10 Norte 30 Noroeste 0 -- -- 52
2018-04-27 14:00:00 19.4 9 Norte 22 Norte 0 -- -- 56
2018-04-27 13:00:00 18.4 12 Noroeste 27 Oeste 0 -- -- 60
2018-04-27 12:00:00 18.7 12 Oeste 27 Oeste 0 -- -- 57
2018-04-27 11:00:00 18.7 11 Oeste 27 Noroeste 0 -- -- 58
2018-04-27 10:00:00 17.4 15 Oeste 28 Oeste 0 -- -- 62
2018-04-27 09:00:00 15.7 19 Oeste 30 Oeste 0 -- -- 67
2018-04-27 08:00:00 13.3 18 Oeste 30 Oeste 0 -- -- 67
2018-04-27 07:00:00 11.7 18 Sudoeste 27 Sudoeste 0 -- -- 70
2018-04-27 06:00:00 10.9 22 Sudoeste 24 Sudoeste 0 -- -- 72
2018-04-27 05:00:00 11 21 Sudoeste 28 Sudoeste 0 -- -- 73
2018-04-27 04:00:00 11.5 19 Sudoeste 24 Sudoeste 0 -- -- 72
2018-04-27 03:00:00 12.7 19 Sudoeste 24 Sudoeste 0 -- -- 67
2018-04-27 02:00:00 12.7 19 Sudoeste 27 Sudoeste 0 -- -- 69
2018-04-27 01:00:00 12.2 20 Sudoeste 28 Sudoeste 0 -- -- 75
2018-04-27 00:00:00 12.8 25 Sudoeste 28 Sur 0 -- -- 73
2018-04-26 23:00:00 13.7 15 Sur 24 Sur 0 -- -- 68
2018-04-26 22:00:00 12.6 0 Calma 12 Este 0 -- -- 70
2018-04-26 21:00:00 13.7 6 Sur 11 Este 0 -- -- 67
2018-04-26 20:00:00 17.3 7 Este 15 Sudeste 0 -- -- 57
2018-04-26 19:00:00 19 8 Este 17 Nordeste 0 -- -- 52
2018-04-26 18:00:00 18.9 12 Nordeste 21 Nordeste 0 -- -- 51
2018-04-26 17:00:00 19.9 8 Norte 19 Este 0 -- -- 48
2018-04-26 16:00:00 20.5 8 Nordeste 17 Este 0 -- -- 52
2018-04-26 15:00:00 19.6 8 Nordeste 17 Nordeste 0 -- -- 55
2018-04-26 14:00:00 19.3 8 Sudeste 17 Sudeste 0 -- -- 54
2018-04-26 13:00:00 18.2 6 Este 16 Este 0 -- -- 56
2018-04-26 12:00:00 16.7 8 Nordeste 13 Este 0 -- -- 59
2018-04-26 11:00:00 14.2 4 Este 9 Nordeste 0 -- -- 61
2018-04-26 10:00:00 11.2 5 Norte 12 Noroeste 0 -- -- 70
2018-04-26 09:00:00 8.8 6 Norte 13 Noroeste 0 -- -- 83
2018-04-26 08:00:00 5.2 7 Noroeste 9 Noroeste 0 -- -- 93
2018-04-26 07:00:00 4.9 8 Noroeste 21 Noroeste 0 -- -- 95
2018-04-26 06:00:00 5.1 6 Noroeste 19 Noroeste 0 -- -- 95
2018-04-26 05:00:00 5.7 12 Noroeste 17 Noroeste 0 -- -- 94
2018-04-26 04:00:00 5.9 10 Noroeste 23 Norte 0 -- -- 95
2018-04-26 03:00:00 6.2 9 Norte 19 Noroeste 0 -- -- 93
2018-04-26 02:00:00 7.1 12 Noroeste 24 Noroeste 0 -- -- 94
2018-04-26 01:00:00 7.4 12 Noroeste 21 Noroeste 0 -- -- 96
2018-04-26 00:00:00 7.8 15 Noroeste 20 Noroeste 0 -- -- 95
2018-04-25 23:00:00 8.7 10 Noroeste 18 Noroeste 0 -- -- 94
2018-04-25 22:00:00 10 15 Noroeste 23 Norte 0 -- -- 91
2018-04-25 21:00:00 13.3 14 Norte 27 Nordeste 0 -- -- 83
2018-04-25 20:00:00 18 18 Nordeste 28 Este 0 -- -- 51
2018-04-25 19:00:00 19.1 16 Nordeste 30 Nordeste 0 -- -- 40
2018-04-25 18:00:00 19.6 18 Nordeste 30 Nordeste 0 -- -- 40
2018-04-25 17:00:00 19.6 19 Nordeste 30 Nordeste 0 -- -- 38
2018-04-25 16:00:00 19.8 17 Nordeste 28 Nordeste 0 -- -- 35
2018-04-25 15:00:00 19.4 16 Nordeste 26 Nordeste 0 -- -- 34
2018-04-25 14:00:00 19.2 14 Nordeste 22 Nordeste 0 -- -- 36
2018-04-25 13:00:00 19 11 Este 20 Nordeste 0 -- -- 38
2018-04-25 12:00:00 19.1 13 Este 20 Este 0 -- -- 42
2018-04-25 11:00:00 19.1 9 Nordeste 14 Nordeste 0 -- -- 34
2018-04-25 10:00:00 18.6 3 Nordeste 5 Sudeste 0 -- -- 39
2018-04-25 09:00:00 16.4 0 Calma 6 Sur 0 -- -- 42
2018-04-25 08:00:00 12.2 2 Sur 8 Sudoeste 0 -- -- 46
2018-04-25 07:00:00 11.4 5 Oeste 8 Sudoeste 0 -- -- 48
2018-04-25 06:00:00 12.8 2 Sur 10 Sudeste 0 -- -- 37
2018-04-25 05:00:00 12.1 8 Sur 10 Sur 0 -- -- 42
2018-04-25 04:00:00 11.9 5 Sur 8 Sur 0 -- -- 54
2018-04-25 03:00:00 12.3 5 Sur 8 Sur 0 -- -- 62
2018-04-25 02:00:00 12.2 5 Sur 7 Sur 0 -- -- 63
2018-04-25 01:00:00 12.4 5 Sur 8 Sur 0 -- -- 63
2018-04-25 00:00:00 12.6 8 Sur 9 Sur 0 -- -- 62
2018-04-24 23:00:00 13.1 4 Sur 9 Sur 0 -- -- 63
2018-04-24 22:00:00 13.5 6 Sur 8 Sudeste 0 -- -- 66
2018-04-24 21:00:00 15.4 4 Sudeste 15 Este 0 -- -- 61
2018-04-24 20:00:00 17.5 12 Este 21 Este 0 -- -- 57
2018-04-24 19:00:00 19 14 Este 23 Sudeste 0 -- -- 55
2018-04-24 18:00:00 20.3 13 Este 26 Este 0 -- -- 51
2018-04-24 17:00:00 20.1 18 Nordeste 32 Nordeste 0 -- -- 51
2018-04-24 16:00:00 20.6 13 Este 24 Este 0 -- -- 50
2018-04-24 15:00:00 20 12 Este 24 Este 0 -- -- 45
2018-04-24 14:00:00 19.6 13 Este 22 Nordeste 0 -- -- 48
2018-04-24 13:00:00 19.2 11 Este 20 Este 0 -- -- 49
2018-04-24 12:00:00 18.6 11 Este 20 Este 0 -- -- 51
2018-04-24 11:00:00 17.1 11 Este 23 Este 0 -- -- 54
2018-04-24 10:00:00 16.2 17 Este 24 Sudeste 0 -- -- 58
2018-04-24 09:00:00 14 10 Este 15 Sudeste 0 -- -- 64
2018-04-24 08:00:00 11.8 14 Sudeste 25 Sudeste 0 -- -- 68
2018-04-24 07:00:00 10.4 14 Sudeste 22 Sudeste 0 -- -- 74
2018-04-24 06:00:00 11 10 Sudeste 18 Sudeste 0 -- -- 76
2018-04-24 05:00:00 11.4 11 Sudeste 19 Sudeste 0 -- -- 75
2018-04-24 04:00:00 10.9 8 Sudeste 17 Sudeste 0 -- -- 74
2018-04-24 03:00:00 11.7 10 Sudeste 22 Sudeste 0 -- -- 68
2018-04-24 02:00:00 12.2 16 Sudeste 21 Sudeste 0 -- -- 67
2018-04-24 01:00:00 11.9 10 Sudeste 18 Sur 0 -- -- 55
2018-04-24 00:00:00 11.7 11 Sudeste 22 Sudeste 0 -- -- 55
2018-04-23 23:00:00 9.8 8 Sudeste 17 Sudeste 0 -- -- 63
2018-04-23 22:00:00 11.1 9 Sudeste 15 Sudeste 0 -- -- 64
2018-04-23 21:00:00 11.8 9 Sudeste 17 Sudeste 0 -- -- 70
2018-04-23 20:00:00 12.7 11 Sudeste 22 Sudeste 0 -- -- 72
2018-04-23 19:00:00 13.4 11 Este 19 Este 0 -- -- 70
2018-04-23 18:00:00 14.1 12 Nordeste 28 Nordeste 0 -- -- 70
2018-04-23 17:00:00 15.9 17 Nordeste 28 Nordeste 0 -- -- 58
2018-04-23 16:00:00 16.6 12 Este 22 Este 0 -- -- 57
2018-04-23 15:00:00 15.7 10 Este 17 Este 0 -- -- 62
2018-04-23 14:00:00 14.6 9 Nordeste 23 Este 0 -- -- 62
2018-04-23 13:00:00 15 5 Este 34 Sudoeste 0 -- -- 61
2018-04-23 12:00:00 16.5 16 Sudoeste 27 Sudoeste 0 -- -- 47
2018-04-23 11:00:00 14.8 4 Este 19 Sudoeste 0 -- -- 50
2018-04-23 10:00:00 13.2 10 Sudoeste 23 Oeste 0 -- -- 49
2018-04-23 09:00:00 13.3 3 Noroeste 20 Oeste 0 -- -- 42
2018-04-23 08:00:00 11.6 15 Sudoeste 18 Sudoeste 0 -- -- 43
2018-04-23 07:00:00 11.7 10 Sudoeste 21 Sudoeste 0 -- -- 42
2018-04-23 06:00:00 11.6 17 Sudoeste 28 Sudoeste 0 -- -- 43
2018-04-23 05:00:00 11.8 21 Sudoeste 29 Sudoeste 0 -- -- 43
2018-04-23 04:00:00 12.6 21 Sudoeste 29 Sudoeste 0 -- -- 41
2018-04-23 03:00:00 11.4 15 Sudoeste 21 Sudoeste 0 -- -- 52
2018-04-23 02:00:00 11.2 9 Sudoeste 15 Sudoeste 0 -- -- 54
2018-04-23 01:00:00 12.4 3 Norte 15 Sur 0 -- -- 58
2018-04-23 00:00:00 13.2 2 Nordeste 30 Sur 0 -- -- 55
2018-04-22 23:00:00 14 19 Sur 27 Sur 0 -- -- 60
2018-04-22 22:00:00 13.9 18 Sur 23 Sur 0 -- -- 58
2018-04-22 21:00:00 14.7 13 Sur 17 Sur 0 -- -- 60
2018-04-22 20:00:00 16 7 Sudeste 12 Nordeste 0 -- -- 63
2018-04-22 19:00:00 16.9 7 Este 25 Este 0 -- -- 58
2018-04-22 18:00:00 17.5 18 Este 28 Este 0 -- -- 54
2018-04-22 17:00:00 18.5 21 Este 28 Este 0 -- -- 48
2018-04-22 16:00:00 18.8 15 Este 24 Este 0 -- -- 47
2018-04-22 15:00:00 19.7 16 Este 27 Este 0 -- -- 46
2018-04-22 14:00:00 19.8 15 Este 20 Este 0 -- -- 46
2018-04-22 13:00:00 15.7 14 Este 20 Este 0 -- -- 55
2018-04-22 12:00:00 14.8 10 Sudoeste 24 Sudoeste 0 -- -- 54
2018-04-22 11:00:00 13.7 10 Sudoeste 21 Sudoeste 0 -- -- 47
2018-04-22 10:00:00 14.7 13 Sudoeste 23 Sudoeste 0 -- -- 43
2018-04-22 09:00:00 13.9 15 Sudoeste 27 Sudoeste 0 -- -- 44
2018-04-22 08:00:00 10.5 19 Sudoeste 27 Sudoeste 0 -- -- 52
2018-04-22 07:00:00 8.9 26 Sudoeste 35 Sudoeste 0 -- -- 59
2018-04-22 06:00:00 9.4 28 Sudoeste 34 Sudoeste 0 -- -- 59
2018-04-22 05:00:00 9.4 31 Sudoeste 39 Sudoeste 0 -- -- 62
2018-04-22 04:00:00 9.5 33 Sudoeste 38 Sudoeste 0 -- -- 62
2018-04-22 03:00:00 9.2 28 Sudoeste 37 Sudoeste 0 -- -- 65
2018-04-22 02:00:00 9.3 19 Sudoeste 27 Sudoeste 0 -- -- 67
2018-04-22 01:00:00 9.2 20 Sudoeste 29 Sudoeste 0 -- -- 76
2018-04-22 00:00:00 10.1 4 Sudeste 24 Sudoeste 0 -- -- 74